Furenas — OZ2085 — position and weather

sailwx.info

Track history (hours):
 
Tides and Currents Weather Stations Pressure Air Temp Water Temp Dewpoint Dewpoint Depression Visibility Wind Speed Wind Dir Waves Ship Positions

Furenas

Last reported at 2015-Aug-02 01:31 UTC. Time now 2015-Aug-02 02:20 UTC.
Position N 53°29' W 003°25'.

Length 137 m; draft 5.6 m.

Type: Tanker. MMSI: 231734000.

Date/timePositionNaut miles runAvg speedWind from/ knotsBaromVisibWave heightAir tempDewpointWater temp
2015-Aug-02 01:31N 53°29' W 003°25'0 0.1
2015-Aug-02 00:31N 53°29' W 003°25'0 0.1
2015-Aug-01 23:31N 53°29' W 003°25'0 0.0
2015-Aug-01 22:31N 53°29' W 003°25'0 0.0
2015-Aug-01 21:31N 53°29' W 003°25'0 0.0
2015-Aug-01 20:25N 53°29' W 003°25'0 0.0
2015-Aug-01 19:34N 53°29' W 003°25'0 0.0
2015-Aug-01 18:34N 53°29' W 003°25'0 0.0
2015-Aug-01 17:33N 53°29' W 003°25'0 0.1
2015-Aug-01 16:33N 53°29' W 003°25'0 0.0
2015-Aug-01 15:33N 53°29' W 003°25'0 0.0
2015-Aug-01 14:33N 53°29' W 003°25'0 0.0
2015-Aug-01 13:33N 53°29' W 003°25'0 0.0
2015-Aug-01 12:33N 53°29' W 003°25'0 0.1
2015-Aug-01 11:33N 53°29' W 003°25'0 0.0
2015-Aug-01 10:33N 53°29' W 003°25'0 0.0
2015-Aug-01 09:33N 53°29' W 003°25'0 0.0
2015-Aug-01 08:33N 53°29' W 003°25'0 0.0
2015-Aug-01 07:33N 53°29' W 003°25'9 8.6
2015-Aug-01 06:33N 53°30' W 003°40'1211.9
2015-Aug-01 05:33N 53°30' W 003°60'190 7.3
2015-Jul-31 03:33N 50°20' W 004°09'2 1.8
2015-Jul-31 02:32N 50°22' W 004°07'0 0.0
2015-Jul-31 01:26N 50°22' W 004°07'0 0.0
2015-Jul-31 00:33N 50°22' W 004°07'0 0.0
2015-Jul-30 23:29N 50°22' W 004°07'0 0.0
2015-Jul-30 22:29N 50°22' W 004°07'0 0.0
2015-Jul-30 21:29N 50°22' W 004°07'0 0.0
2015-Jul-30 20:23N 50°22' W 004°07'0 0.0
2015-Jul-30 19:32N 50°22' W 004°07'0 0.0
2015-Jul-30 18:23N 50°22' W 004°07'0 0.0
2015-Jul-30 17:32N 50°22' W 004°07'0 0.0
2015-Jul-30 16:14N 50°22' W 004°07'0 0.0
2015-Jul-30 14:20N 50°22' W 004°07'0 0.0
2015-Jul-30 13:32N 50°22' W 004°07'0 0.0
2015-Jul-30 09:04N 50°22' W 004°07'0 0.0
2015-Jul-30 08:10N 50°22' W 004°07'0 0.0
2015-Jul-30 07:16N 50°22' W 004°07'0 0.0
2015-Jul-30 06:22N 50°22' W 004°07'0 0.0
2015-Jul-30 04:31N 50°22' W 004°07'0 0.0
2015-Jul-30 03:31N 50°22' W 004°07'0 0.0
2015-Jul-30 02:22N 50°22' W 004°07'0 0.0
2015-Jul-30 01:28N 50°22' W 004°07'0 0.0
2015-Jul-30 00:22N 50°22' W 004°07'0 0.0
2015-Jul-29 22:31N 50°22' W 004°07'0 0.0
2015-Jul-29 21:31N 50°22' W 004°07'0 0.0
2015-Jul-29 20:22N 50°22' W 004°07'0 0.0
2015-Jul-29 19:28N 50°22' W 004°07'0 0.0
2015-Jul-29 17:31N 50°22' W 004°07'0 0.0
2015-Jul-29 16:04N 50°22' W 004°07'0 0.0
2015-Jul-29 15:28N 50°22' W 004°07'1 1.3
2015-Jul-29 14:33N 50°21' W 004°08'2 1.1
2015-Jul-29 12:23N 50°18' W 004°09'0 0.0
2015-Jul-29 06:12N 50°18' W 004°09'17010.0
2015-Jul-28 13:20N 50°35' E 000°16'1012.5
2015-Jul-28 12:33N 50°37' E 000°31'1212.0
2015-Jul-28 11:33N 50°44' E 000°47'1311.3
2015-Jul-28 10:27N 50°51' E 001°03'1310.8
2015-Jul-28 09:14N 50°60' E 001°19'710.2
2015-Jul-28 08:33N 51°04' E 001°27'1110.6
2015-Jul-28 07:33N 51°11' E 001°40'1111.1
2015-Jul-28 06:34N 51°20' E 001°50'1212.4
2015-Jul-28 05:33N 51°31' E 002°00'7011.7
2015-Jul-27 23:33N 52°31' E 002°58'1111.2
2015-Jul-27 22:33N 52°42' E 003°06'1111.3
2015-Jul-27 21:33N 52°52' E 003°13'1211.9
2015-Jul-27 20:32N 53°03' E 003°20'38611.6
2015-Jul-26 11:23N 58°02' E 010°31'911.3
2015-Jul-26 10:33N 58°07' E 010°47'1111.1
2015-Jul-26 09:33N 58°12' E 011°05'1211.6
2015-Jul-26 08:33N 58°20' E 011°22'3 0.2
2015-Jul-25 19:08N 58°21' E 011°26'0 0.0
2015-Jul-25 17:20N 58°21' E 011°26'0 0.0
2015-Jul-25 16:14N 58°21' E 011°26'0 0.0
2015-Jul-25 14:08N 58°21' E 011°26'0 0.0
2015-Jul-25 12:20N 58°21' E 011°26'0 0.0
2015-Jul-25 11:32N 58°21' E 011°26'0 0.0
2015-Jul-24 13:25N 58°21' E 011°26'3 3.8
2015-Jul-24 12:33N 58°19' E 011°22'1111.2
2015-Jul-24 11:33N 58°12' E 011°05'10 9.8
2015-Jul-24 10:33N 58°07' E 010°49'1211.5
2015-Jul-24 09:33N 58°01' E 010°31'20211.9
2015-Jul-23 16:33N 55°27' E 006°30'1212.0
2015-Jul-23 15:33N 55°17' E 006°19'7211.9
2015-Jul-23 09:30N 54°15' E 005°16'1212.4
2015-Jul-23 08:31N 54°04' E 005°07'1312.5
2015-Jul-23 07:30N 53°52' E 004°60'1712.8
2015-Jul-23 06:10N 53°36' E 004°50'712.3
2015-Jul-23 05:33N 53°29' E 004°45'2712.0
2015-Jul-23 03:19N 53°05' E 004°25'912.1
2015-Jul-23 02:33N 52°56' E 004°18'1212.0
2015-Jul-23 01:33N 52°46' E 004°09'  
Track history (hours):
 
Tides and Currents Weather Stations Pressure Air Temp Water Temp Dewpoint Dewpoint Depression Visibility Wind Speed Wind Dir Waves Ship Positions

Furenas

Last reported at 2015-Aug-02 01:31 UTC. Time now 2015-Aug-02 02:20 UTC.
Position N 53°29' W 003°25'.

Length 137 m; draft 5.6 m.

Type: Tanker. MMSI: 231734000.

Date/timePositionNaut miles runAvg speedWind from/ knotsBaromVisibWave heightAir tempDewpointWater temp
2015-Aug-02 01:31N 53°29' W 003°25'0 0.1
2015-Aug-02 00:31N 53°29' W 003°25'0 0.1
2015-Aug-01 23:31N 53°29' W 003°25'0 0.0
2015-Aug-01 22:31N 53°29' W 003°25'0 0.0
2015-Aug-01 21:31N 53°29' W 003°25'0 0.0
2015-Aug-01 20:25N 53°29' W 003°25'0 0.0
2015-Aug-01 19:34N 53°29' W 003°25'0 0.0
2015-Aug-01 18:34N 53°29' W 003°25'0 0.0
2015-Aug-01 17:33N 53°29' W 003°25'0 0.1
2015-Aug-01 16:33N 53°29' W 003°25'0 0.0
2015-Aug-01 15:33N 53°29' W 003°25'0 0.0
2015-Aug-01 14:33N 53°29' W 003°25'0 0.0
2015-Aug-01 13:33N 53°29' W 003°25'0 0.0
2015-Aug-01 12:33N 53°29' W 003°25'0 0.1
2015-Aug-01 11:33N 53°29' W 003°25'0 0.0
2015-Aug-01 10:33N 53°29' W 003°25'0 0.0
2015-Aug-01 09:33N 53°29' W 003°25'0 0.0
2015-Aug-01 08:33N 53°29' W 003°25'0 0.0
2015-Aug-01 07:33N 53°29' W 003°25'9 8.6
2015-Aug-01 06:33N 53°30' W 003°40'1211.9
2015-Aug-01 05:33N 53°30' W 003°60'190 7.3
2015-Jul-31 03:33N 50°20' W 004°09'2 1.8
2015-Jul-31 02:32N 50°22' W 004°07'0 0.0
2015-Jul-31 01:26N 50°22' W 004°07'0 0.0
2015-Jul-31 00:33N 50°22' W 004°07'0 0.0
2015-Jul-30 23:29N 50°22' W 004°07'0 0.0
2015-Jul-30 22:29N 50°22' W 004°07'0 0.0
2015-Jul-30 21:29N 50°22' W 004°07'0 0.0
2015-Jul-30 20:23N 50°22' W 004°07'0 0.0
2015-Jul-30 19:32N 50°22' W 004°07'0 0.0
2015-Jul-30 18:23N 50°22' W 004°07'0 0.0
2015-Jul-30 17:32N 50°22' W 004°07'0 0.0
2015-Jul-30 16:14N 50°22' W 004°07'0 0.0
2015-Jul-30 14:20N 50°22' W 004°07'0 0.0
2015-Jul-30 13:32N 50°22' W 004°07'0 0.0
2015-Jul-30 09:04N 50°22' W 004°07'0 0.0
2015-Jul-30 08:10N 50°22' W 004°07'0 0.0
2015-Jul-30 07:16N 50°22' W 004°07'0 0.0
2015-Jul-30 06:22N 50°22' W 004°07'0 0.0
2015-Jul-30 04:31N 50°22' W 004°07'0 0.0
2015-Jul-30 03:31N 50°22' W 004°07'0 0.0
2015-Jul-30 02:22N 50°22' W 004°07'0 0.0
2015-Jul-30 01:28N 50°22' W 004°07'0 0.0
2015-Jul-30 00:22N 50°22' W 004°07'0 0.0
2015-Jul-29 22:31N 50°22' W 004°07'0 0.0
2015-Jul-29 21:31N 50°22' W 004°07'0 0.0
2015-Jul-29 20:22N 50°22' W 004°07'0 0.0
2015-Jul-29 19:28N 50°22' W 004°07'0 0.0
2015-Jul-29 17:31N 50°22' W 004°07'0 0.0
2015-Jul-29 16:04N 50°22' W 004°07'0 0.0
2015-Jul-29 15:28N 50°22' W 004°07'1 1.3
2015-Jul-29 14:33N 50°21' W 004°08'2 1.1
2015-Jul-29 12:23N 50°18' W 004°09'0 0.0
2015-Jul-29 06:12N 50°18' W 004°09'17010.0
2015-Jul-28 13:20N 50°35' E 000°16'1012.5
2015-Jul-28 12:33N 50°37' E 000°31'1212.0
2015-Jul-28 11:33N 50°44' E 000°47'1311.3
2015-Jul-28 10:27N 50°51' E 001°03'1310.8
2015-Jul-28 09:14N 50°60' E 001°19'710.2
2015-Jul-28 08:33N 51°04' E 001°27'1110.6
2015-Jul-28 07:33N 51°11' E 001°40'1111.1
2015-Jul-28 06:34N 51°20' E 001°50'1212.4
2015-Jul-28 05:33N 51°31' E 002°00'7011.7
2015-Jul-27 23:33N 52°31' E 002°58'1111.2
2015-Jul-27 22:33N 52°42' E 003°06'1111.3
2015-Jul-27 21:33N 52°52' E 003°13'1211.9
2015-Jul-27 20:32N 53°03' E 003°20'38611.6
2015-Jul-26 11:23N 58°02' E 010°31'911.3
2015-Jul-26 10:33N 58°07' E 010°47'1111.1
2015-Jul-26 09:33N 58°12' E 011°05'1211.6
2015-Jul-26 08:33N 58°20' E 011°22'3 0.2
2015-Jul-25 19:08N 58°21' E 011°26'0 0.0
2015-Jul-25 17:20N 58°21' E 011°26'0 0.0
2015-Jul-25 16:14N 58°21' E 011°26'0 0.0
2015-Jul-25 14:08N 58°21' E 011°26'0 0.0
2015-Jul-25 12:20N 58°21' E 011°26'0 0.0
2015-Jul-25 11:32N 58°21' E 011°26'0 0.0
2015-Jul-24 13:25N 58°21' E 011°26'3 3.8
2015-Jul-24 12:33N 58°19' E 011°22'1111.2
2015-Jul-24 11:33N 58°12' E 011°05'10 9.8
2015-Jul-24 10:33N 58°07' E 010°49'1211.5
2015-Jul-24 09:33N 58°01' E 010°31'20211.9
2015-Jul-23 16:33N 55°27' E 006°30'1212.0
2015-Jul-23 15:33N 55°17' E 006°19'7211.9
2015-Jul-23 09:30N 54°15' E 005°16'1212.4
2015-Jul-23 08:31N 54°04' E 005°07'1312.5
2015-Jul-23 07:30N 53°52' E 004°60'1712.8
2015-Jul-23 06:10N 53°36' E 004°50'712.3
2015-Jul-23 05:33N 53°29' E 004°45'2712.0
2015-Jul-23 03:19N 53°05' E 004°25'912.1
2015-Jul-23 02:33N 52°56' E 004°18'1212.0
2015-Jul-23 01:33N 52°46' E 004°09'  

Dump ship's entire track history